Time;durP1;ratioP1;P1;durP2;ratioP2;P2;SDS_P1;SDS_P2;PMS_P1;PMS_P2;Temp;Humidity;BMP_temperature;BMP_pressure;BME280_temperature;BME280_humidity;BME280_pressure;Samples;Min_cycle;Max_cycle;Signal;HPM_P1;HPM_P2
2024/03/22 00:01:41;;;;;;;45.63;42.92;;;;;;;;;;5111800;27;20039;-54
2024/03/22 00:04:06;;;;;;;47.25;44.65;;;;;;;;;;5109614;27;20477;-54
2024/03/22 00:06:31;;;;;;;50.10;47.42;;;;;;;;;;5112181;27;20042;-50
2024/03/22 00:08:57;;;;;;;48.97;46.38;;;;;;;;;;5112833;27;20408;-55
2024/03/22 00:11:22;;;;;;;51.15;48.45;;;;;;;;;;5111082;27;20709;-54
2024/03/22 00:13:47;;;;;;;54.13;51.38;;;;;;;;;;5110185;27;20102;-51
2024/03/22 00:16:12;;;;;;;56.13;53.28;;;;;;;;;;5109849;28;20041;-54
2024/03/22 00:18:38;;;;;;;59.58;56.53;;;;;;;;;;5111711;28;20352;-50
2024/03/22 00:21:03;;;;;;;57.35;54.40;;;;;;;;;;5107485;28;20028;-55
2024/03/22 00:23:30;;;;;;;64.75;61.35;;;;;;;;;;5092598;27;21189;-54
2024/03/22 00:25:56;;;;;;;66.57;63.20;;;;;;;;;;5115177;27;20035;-54
2024/03/22 00:28:21;;;;;;;69.22;65.70;;;;;;;;;;5116362;27;20136;-55
2024/03/22 00:30:47;;;;;;;72.82;68.90;;;;;;;;;;5111882;27;20027;-52
2024/03/22 00:33:12;;;;;;;70.43;66.78;;;;;;;;;;5114135;27;20053;-53
2024/03/22 00:35:37;;;;;;;69.38;65.82;;;;;;;;;;5115159;27;20035;-53
2024/03/22 00:38:03;;;;;;;74.30;70.35;;;;;;;;;;5116704;27;21199;-55
2024/03/22 00:40:28;;;;;;;73.50;69.72;;;;;;;;;;5098648;27;20047;-53
2024/03/22 00:42:54;;;;;;;62.30;59.05;;;;;;;;;;5116456;27;20019;-54
2024/03/22 00:45:19;;;;;;;52.58;49.83;;;;;;;;;;5118003;27;20024;-52
2024/03/22 00:47:44;;;;;;;46.15;43.55;;;;;;;;;;5117532;27;20024;-53
2024/03/22 00:50:10;;;;;;;44.85;42.45;;;;;;;;;;5119843;27;20446;-55
2024/03/22 00:52:35;;;;;;;45.28;42.78;;;;;;;;;;5113622;27;20255;-54
2024/03/22 00:55:00;;;;;;;44.78;42.38;;;;;;;;;;5116256;27;20475;-54
2024/03/22 00:57:26;;;;;;;44.88;42.38;;;;;;;;;;5116398;27;20035;-53
2024/03/22 00:59:51;;;;;;;42.25;39.95;;;;;;;;;;5114082;27;20503;-52
2024/03/22 01:02:16;;;;;;;36.17;34.25;;;;;;;;;;5115636;27;20712;-55
2024/03/22 01:04:42;;;;;;;36.58;34.63;;;;;;;;;;5113566;27;20479;-53
2024/03/22 01:07:07;;;;;;;35.45;33.42;;;;;;;;;;5096017;27;20042;-52
2024/03/22 01:09:32;;;;;;;35.90;33.90;;;;;;;;;;5117685;27;20048;-50
2024/03/22 01:11:58;;;;;;;35.38;33.38;;;;;;;;;;5097020;27;20035;-53
2024/03/22 01:14:23;;;;;;;36.15;34.22;;;;;;;;;;5113125;27;20126;-49
2024/03/22 01:16:48;;;;;;;33.42;31.52;;;;;;;;;;5114687;27;20031;-53
2024/03/22 01:19:14;;;;;;;40.33;38.22;;;;;;;;;;5117230;27;20226;-54
2024/03/22 01:21:39;;;;;;;33.63;31.73;;;;;;;;;;5115350;27;20118;-52
2024/03/22 01:24:04;;;;;;;38.30;36.25;;;;;;;;;;5115845;27;20593;-52
2024/03/22 01:26:30;;;;;;;36.78;34.60;;;;;;;;;;5117147;27;20524;-54
2024/03/22 01:28:55;;;;;;;37.53;35.33;;;;;;;;;;5115178;27;20023;-54
2024/03/22 01:31:20;;;;;;;41.00;38.83;;;;;;;;;;5113050;27;20045;-50
2024/03/22 01:33:46;;;;;;;36.47;34.53;;;;;;;;;;5114572;27;20626;-53
2024/03/22 01:36:11;;;;;;;40.50;38.33;;;;;;;;;;5113586;27;20107;-53
2024/03/22 01:38:37;;;;;;;39.20;36.30;;;;;;;;;;5113467;27;20591;-54
2024/03/22 01:41:02;;;;;;;37.97;35.60;;;;;;;;;;5114794;27;20028;-53
2024/03/22 01:43:29;;;;;;;38.08;36.00;;;;;;;;;;5111056;27;20051;-52
2024/03/22 01:45:54;;;;;;;36.83;34.70;;;;;;;;;;5112473;27;20027;-54
2024/03/22 01:48:20;;;;;;;44.40;41.90;;;;;;;;;;5115753;27;20073;-53
2024/03/22 01:50:45;;;;;;;37.95;35.88;;;;;;;;;;5080086;27;20035;-54
2024/03/22 01:53:11;;;;;;;41.08;38.85;;;;;;;;;;5101441;27;20433;-52
2024/03/22 01:55:36;;;;;;;39.95;37.75;;;;;;;;;;5114869;27;20119;-53
2024/03/22 01:58:03;;;;;;;38.20;36.20;;;;;;;;;;5113568;27;20102;-52
2024/03/22 02:00:28;;;;;;;39.47;37.22;;;;;;;;;;5112775;27;20346;-54
2024/03/22 02:02:53;;;;;;;38.80;36.70;;;;;;;;;;5114535;27;20024;-49
2024/03/22 02:05:20;;;;;;;46.45;43.83;;;;;;;;;;5114672;27;20051;-53
2024/03/22 02:07:46;;;;;;;45.40;42.83;;;;;;;;;;5111245;27;20031;-54
2024/03/22 02:10:12;;;;;;;43.95;41.55;;;;;;;;;;5115389;27;20023;-50
2024/03/22 02:12:41;;;;;;;43.33;41.03;;;;;;;;;;5113802;27;20036;-53
2024/03/22 02:15:08;;;;;;;44.10;41.60;;;;;;;;;;5112362;27;20038;-52
2024/03/22 02:17:34;;;;;;;47.78;45.22;;;;;;;;;;5113804;27;20042;-50
2024/03/22 02:20:00;;;;;;;46.40;44.00;;;;;;;;;;5095477;27;20530;-51
2024/03/22 02:22:26;;;;;;;46.92;44.42;;;;;;;;;;5113569;27;20038;-49
2024/03/22 02:24:52;;;;;;;47.10;44.50;;;;;;;;;;5115436;27;20050;-51
2024/03/22 02:27:17;;;;;;;49.97;47.35;;;;;;;;;;5112753;27;20637;-50
2024/03/22 02:29:42;;;;;;;43.80;41.47;;;;;;;;;;5096140;27;20089;-50
2024/03/22 02:32:10;;;;;;;41.95;39.75;;;;;;;;;;5117044;27;20039;-52
2024/03/22 02:34:35;;;;;;;36.80;34.80;;;;;;;;;;5111650;27;20092;-51
2024/03/22 02:37:01;;;;;;;38.45;36.15;;;;;;;;;;5114482;27;20039;-53
2024/03/22 02:39:26;;;;;;;33.88;31.98;;;;;;;;;;5113555;27;20028;-50
2024/03/22 02:41:51;;;;;;;34.85;32.78;;;;;;;;;;5114257;27;20046;-51
2024/03/22 02:44:17;;;;;;;34.15;32.28;;;;;;;;;;5114678;27;20043;-50
2024/03/22 02:46:42;;;;;;;33.50;31.67;;;;;;;;;;5109047;27;20045;-51
2024/03/22 02:49:07;;;;;;;37.90;35.53;;;;;;;;;;5111981;27;20059;-54
2024/03/22 02:51:33;;;;;;;40.70;38.58;;;;;;;;;;5110951;27;20074;-52
2024/03/22 02:53:58;;;;;;;43.65;41.35;;;;;;;;;;5112163;27;20031;-50
2024/03/22 02:56:23;;;;;;;45.28;42.78;;;;;;;;;;5110289;27;20035;-50
2024/03/22 02:58:49;;;;;;;43.55;41.20;;;;;;;;;;5111097;27;20062;-51
2024/03/22 03:01:15;;;;;;;56.55;44.08;;;;;;;;;;5110170;27;20046;-53
2024/03/22 03:03:40;;;;;;;49.60;46.90;;;;;;;;;;5109961;27;20633;-52
2024/03/22 03:06:05;;;;;;;50.47;47.67;;;;;;;;;;5111918;27;20023;-50
2024/03/22 03:08:31;;;;;;;53.80;50.90;;;;;;;;;;5096889;27;20349;-47
2024/03/22 03:10:56;;;;;;;53.65;50.80;;;;;;;;;;5112554;27;20453;-48
2024/03/22 03:13:22;;;;;;;54.25;51.45;;;;;;;;;;5115844;27;20060;-48
2024/03/22 03:15:47;;;;;;;56.92;53.80;;;;;;;;;;5110970;27;20491;-48
2024/03/22 03:18:12;;;;;;;56.30;53.15;;;;;;;;;;5117491;27;20023;-51
2024/03/22 03:20:37;;;;;;;56.00;52.95;;;;;;;;;;5113781;27;20044;-51
2024/03/22 03:23:03;;;;;;;57.58;54.53;;;;;;;;;;5114974;27;20031;-50
2024/03/22 03:25:29;;;;;;;54.67;51.83;;;;;;;;;;5111114;27;20035;-53
2024/03/22 03:27:54;;;;;;;57.92;54.67;;;;;;;;;;5111356;27;20042;-53
2024/03/22 03:30:19;;;;;;;65.43;62.05;;;;;;;;;;5114166;27;20108;-50
2024/03/22 03:32:45;;;;;;;61.25;57.88;;;;;;;;;;5109275;27;20034;-52
2024/03/22 03:35:10;;;;;;;66.55;63.10;;;;;;;;;;5111845;27;20038;-52
2024/03/22 03:37:35;;;;;;;64.82;61.40;;;;;;;;;;5110705;27;20123;-49
2024/03/22 03:40:01;;;;;;;62.08;58.88;;;;;;;;;;5111706;27;20050;-52
2024/03/22 03:42:26;;;;;;;60.63;57.10;;;;;;;;;;5110519;27;20657;-50
2024/03/22 03:44:52;;;;;;;62.38;58.72;;;;;;;;;;5111303;27;20035;-53
2024/03/22 03:47:17;;;;;;;61.08;57.67;;;;;;;;;;5115872;27;20108;-51
2024/03/22 03:49:45;;;;;;;62.13;58.85;;;;;;;;;;5110377;27;20088;-51
2024/03/22 03:52:10;;;;;;;59.10;56.03;;;;;;;;;;5089585;27;20039;-54
2024/03/22 03:54:36;;;;;;;61.47;58.10;;;;;;;;;;5113083;27;20031;-52
2024/03/22 03:57:01;;;;;;;63.88;60.47;;;;;;;;;;5110615;27;20043;-50
2024/03/22 03:59:26;;;;;;;62.03;58.72;;;;;;;;;;5115522;27;20046;-51
2024/03/22 04:01:52;;;;;;;62.45;59.22;;;;;;;;;;5112129;27;20464;-54
2024/03/22 04:04:17;;;;;;;59.25;56.10;;;;;;;;;;5095653;28;20027;-53
2024/03/22 04:06:44;;;;;;;61.83;58.58;;;;;;;;;;5112165;27;20095;-52
2024/03/22 04:09:09;;;;;;;61.85;58.55;;;;;;;;;;5112657;27;20090;-52
2024/03/22 04:11:35;;;;;;;57.30;54.28;;;;;;;;;;5111708;27;20081;-51
2024/03/22 04:14:00;;;;;;;54.15;51.28;;;;;;;;;;5107394;28;20057;-54
2024/03/22 04:16:25;;;;;;;53.88;51.03;;;;;;;;;;5110639;28;20035;-51
2024/03/22 04:18:51;;;;;;;54.88;51.72;;;;;;;;;;5112421;28;20035;-49
2024/03/22 04:21:17;;;;;;;55.67;52.45;;;;;;;;;;5111532;28;20080;-52
2024/03/22 04:23:42;;;;;;;56.50;53.53;;;;;;;;;;5109728;28;20134;-50
2024/03/22 04:26:08;;;;;;;57.97;54.83;;;;;;;;;;5114082;28;20063;-48
2024/03/22 04:28:33;;;;;;;58.60;55.45;;;;;;;;;;5115702;28;20031;-53
2024/03/22 04:31:03;;;;;;;54.15;51.00;;;;;;;;;;5108772;28;20602;-49
2024/03/22 04:33:30;;;;;;;55.27;52.37;;;;;;;;;;5111226;28;20053;-49
2024/03/22 04:35:56;;;;;;;51.22;48.30;;;;;;;;;;5109425;28;20035;-49
2024/03/22 04:38:23;;;;;;;50.10;47.35;;;;;;;;;;5092438;28;20035;-51
2024/03/22 04:40:48;;;;;;;51.50;48.58;;;;;;;;;;5108647;28;20027;-52
2024/03/22 04:43:15;;;;;;;52.15;49.10;;;;;;;;;;5110787;28;20051;-53
2024/03/22 04:45:44;;;;;;;55.00;52.15;;;;;;;;;;5106342;28;20023;-53
2024/03/22 04:48:12;;;;;;;58.40;55.20;;;;;;;;;;5107234;28;20414;-53
2024/03/22 04:50:37;;;;;;;56.35;53.40;;;;;;;;;;5108309;28;20074;-55
2024/03/22 04:53:03;;;;;;;62.03;58.67;;;;;;;;;;5110769;28;20050;-52
2024/03/22 04:55:28;;;;;;;65.13;61.63;;;;;;;;;;5094623;28;20164;-50
2024/03/22 04:57:53;;;;;;;64.45;60.60;;;;;;;;;;5110174;28;20758;-52
2024/03/22 05:00:19;;;;;;;68.00;64.50;;;;;;;;;;5111894;28;20046;-54
2024/03/22 05:02:44;;;;;;;66.40;63.00;;;;;;;;;;5094154;28;20034;-53
2024/03/22 05:05:10;;;;;;;66.38;63.00;;;;;;;;;;5110291;28;20587;-49
2024/03/22 05:07:36;;;;;;;67.75;64.22;;;;;;;;;;5108380;28;20717;-51
2024/03/22 05:10:01;;;;;;;65.50;62.00;;;;;;;;;;5092343;27;20122;-54
2024/03/22 05:12:27;;;;;;;63.17;59.90;;;;;;;;;;5116817;27;20042;-53
2024/03/22 05:14:52;;;;;;;70.65;66.85;;;;;;;;;;5110568;27;20104;-53
2024/03/22 05:17:17;;;;;;;69.43;65.68;;;;;;;;;;5095852;27;20039;-54
2024/03/22 05:19:43;;;;;;;66.40;63.00;;;;;;;;;;5111635;27;20039;-51
2024/03/22 05:22:08;;;;;;;62.70;59.45;;;;;;;;;;5113995;27;20131;-55
2024/03/22 05:24:33;;;;;;;65.38;61.70;;;;;;;;;;5115658;27;20043;-55
2024/03/22 05:26:59;;;;;;;58.83;55.80;;;;;;;;;;5104840;27;20028;-53
2024/03/22 05:29:25;;;;;;;59.30;56.10;;;;;;;;;;5113822;27;20095;-52
2024/03/22 05:31:53;;;;;;;57.72;54.55;;;;;;;;;;5113359;27;20031;-55
2024/03/22 05:34:19;;;;;;;56.80;53.78;;;;;;;;;;5113084;27;20507;-53
2024/03/22 05:36:45;;;;;;;57.03;53.95;;;;;;;;;;5111413;27;20035;-54
2024/03/22 05:39:11;;;;;;;54.80;51.85;;;;;;;;;;5092597;28;20039;-53
2024/03/22 05:41:37;;;;;;;57.17;54.08;;;;;;;;;;5113597;27;20039;-55
2024/03/22 05:44:02;;;;;;;52.53;49.78;;;;;;;;;;5107136;27;20028;-54
2024/03/22 05:46:29;;;;;;;52.90;50.17;;;;;;;;;;5113211;27;20123;-54
2024/03/22 05:48:54;;;;;;;53.63;50.58;;;;;;;;;;5087791;28;20370;-53
2024/03/22 05:51:19;;;;;;;53.83;51.00;;;;;;;;;;5109094;27;20042;-54
2024/03/22 05:53:45;;;;;;;56.08;52.90;;;;;;;;;;5092369;27;20540;-55
2024/03/22 05:56:10;;;;;;;55.58;52.63;;;;;;;;;;5109643;27;20032;-52
2024/03/22 05:58:36;;;;;;;57.03;54.05;;;;;;;;;;5112935;27;20032;-54
2024/03/22 06:01:03;;;;;;;58.53;55.33;;;;;;;;;;5107874;27;20130;-53
2024/03/22 06:03:29;;;;;;;58.35;55.22;;;;;;;;;;5094318;27;20088;-54
2024/03/22 06:05:56;;;;;;;54.65;51.80;;;;;;;;;;5110418;27;20046;-55
2024/03/22 06:08:22;;;;;;;61.70;58.40;;;;;;;;;;5129904;27;20039;-53
2024/03/22 06:10:48;;;;;;;58.85;55.65;;;;;;;;;;5112357;27;20054;-53
2024/03/22 06:13:13;;;;;;;58.33;55.13;;;;;;;;;;5111559;27;20038;-55
2024/03/22 06:15:40;;;;;;;56.88;53.92;;;;;;;;;;5109191;27;20035;-53
2024/03/22 06:18:05;;;;;;;52.53;49.72;;;;;;;;;;5111431;27;20595;-53
2024/03/22 06:20:31;;;;;;;54.45;51.25;;;;;;;;;;5114952;27;20039;-53
2024/03/22 06:22:57;;;;;;;55.08;52.13;;;;;;;;;;5111683;27;20015;-55
2024/03/22 06:25:22;;;;;;;55.13;51.42;;;;;;;;;;5113816;27;20389;-53
2024/03/22 06:27:47;;;;;;;51.63;48.90;;;;;;;;;;5108993;27;21233;-54
2024/03/22 06:30:13;;;;;;;56.75;53.65;;;;;;;;;;5110454;27;20038;-55
2024/03/22 06:32:38;;;;;;;51.58;48.83;;;;;;;;;;5110077;27;20069;-54
2024/03/22 06:35:05;;;;;;;53.22;50.38;;;;;;;;;;5110878;27;20633;-55
2024/03/22 06:37:31;;;;;;;51.83;48.92;;;;;;;;;;5107934;27;20118;-53
2024/03/22 06:39:58;;;;;;;52.70;49.88;;;;;;;;;;5112082;27;20031;-55
2024/03/22 06:42:23;;;;;;;54.53;51.63;;;;;;;;;;5108163;27;20114;-54
2024/03/22 06:44:49;;;;;;;57.45;54.42;;;;;;;;;;5105374;27;20630;-56
2024/03/22 06:47:14;;;;;;;55.13;52.13;;;;;;;;;;5109487;27;20039;-54
2024/03/22 06:49:40;;;;;;;55.95;53.05;;;;;;;;;;5110558;27;20031;-54
2024/03/22 06:52:06;;;;;;;58.47;55.40;;;;;;;;;;5107440;27;20047;-55
2024/03/22 06:54:31;;;;;;;50.58;47.88;;;;;;;;;;5109508;27;20069;-55
2024/03/22 06:56:56;;;;;;;49.85;47.15;;;;;;;;;;5090140;27;20027;-51
2024/03/22 06:59:22;;;;;;;51.58;48.70;;;;;;;;;;5107380;27;20122;-54
2024/03/22 07:01:47;;;;;;;51.05;48.25;;;;;;;;;;5108888;27;20092;-54
2024/03/22 07:04:12;;;;;;;47.75;45.22;;;;;;;;;;5093225;28;20034;-60
2024/03/22 07:06:37;;;;;;;46.00;43.60;;;;;;;;;;5108644;27;20035;-61
2024/03/22 07:09:03;;;;;;;47.22;44.47;;;;;;;;;;5107266;27;20035;-61
2024/03/22 07:11:29;;;;;;;46.42;43.92;;;;;;;;;;5108439;27;20035;-61
2024/03/22 07:13:55;;;;;;;45.28;42.72;;;;;;;;;;5108979;27;20107;-61
2024/03/22 07:16:20;;;;;;;45.42;43.03;;;;;;;;;;5110231;27;20047;-62
2024/03/22 07:18:48;;;;;;;39.65;37.45;;;;;;;;;;5109905;27;20023;-61
2024/03/22 07:21:13;;;;;;;40.33;38.13;;;;;;;;;;5110768;27;20043;-61
2024/03/22 07:23:39;;;;;;;39.58;37.45;;;;;;;;;;5127778;27;20508;-62
2024/03/22 07:26:05;;;;;;;41.10;38.88;;;;;;;;;;5094386;28;20625;-63
2024/03/22 07:28:31;;;;;;;39.47;37.28;;;;;;;;;;5111302;27;20031;-62
2024/03/22 07:30:56;;;;;;;37.28;35.30;;;;;;;;;;5109689;27;20028;-62
2024/03/22 07:33:21;;;;;;;43.78;41.35;;;;;;;;;;5111396;27;20050;-61
2024/03/22 07:35:47;;;;;;;37.63;35.50;;;;;;;;;;5113611;27;20045;-61
2024/03/22 07:38:12;;;;;;;39.78;37.58;;;;;;;;;;5110183;27;20049;-61
2024/03/22 07:40:37;;;;;;;38.35;36.17;;;;;;;;;;5117111;27;20034;-61
2024/03/22 07:43:05;;;;;;;34.30;32.30;;;;;;;;;;5106518;27;20047;-61
2024/03/22 07:45:32;;;;;;;32.63;30.83;;;;;;;;;;5093250;27;20114;-61
2024/03/22 07:47:58;;;;;;;32.85;30.85;;;;;;;;;;5110088;27;20046;-62
2024/03/22 07:50:23;;;;;;;35.90;33.97;;;;;;;;;;5111492;27;20032;-56
2024/03/22 07:52:48;;;;;;;34.33;32.22;;;;;;;;;;5108818;27;20096;-56
2024/03/22 07:55:14;;;;;;;35.80;33.55;;;;;;;;;;5113246;27;20043;-51
2024/03/22 07:57:39;;;;;;;34.88;32.78;;;;;;;;;;5095369;27;20061;-55
2024/03/22 08:00:06;;;;;;;38.53;36.33;;;;;;;;;;5108459;27;20630;-54
2024/03/22 08:02:32;;;;;;;36.60;34.63;;;;;;;;;;5108532;27;20035;-55
2024/03/22 08:04:57;;;;;;;36.20;34.22;;;;;;;;;;5109306;27;20092;-53
2024/03/22 08:07:22;;;;;;;35.00;32.78;;;;;;;;;;5106842;27;20043;-55
2024/03/22 08:09:47;;;;;;;37.83;35.63;;;;;;;;;;5111133;27;20411;-55
2024/03/22 08:12:13;;;;;;;39.30;37.22;;;;;;;;;;5110120;27;20112;-54
2024/03/22 08:14:38;;;;;;;36.63;34.60;;;;;;;;;;5108537;28;20214;-51
2024/03/22 08:17:04;;;;;;;37.88;35.58;;;;;;;;;;5107552;28;20042;-53
2024/03/22 08:19:29;;;;;;;40.17;37.80;;;;;;;;;;5106814;28;20039;-53
2024/03/22 08:21:54;;;;;;;40.03;37.80;;;;;;;;;;5109291;28;20490;-55
2024/03/22 08:24:19;;;;;;;39.45;37.08;;;;;;;;;;5106225;28;20465;-54
2024/03/22 08:26:46;;;;;;;40.55;38.35;;;;;;;;;;5107772;28;20051;-55
2024/03/22 08:29:14;;;;;;;41.50;39.30;;;;;;;;;;5091370;28;20092;-55
2024/03/22 08:31:40;;;;;;;43.28;41.03;;;;;;;;;;5109932;28;20031;-54
2024/03/22 08:34:05;;;;;;;45.95;42.80;;;;;;;;;;5108662;28;20069;-55
2024/03/22 08:36:31;;;;;;;42.60;40.25;;;;;;;;;;5108553;28;20027;-53
2024/03/22 08:38:56;;;;;;;47.25;44.33;;;;;;;;;;5111039;28;20019;-55
2024/03/22 08:41:21;;;;;;;45.30;42.80;;;;;;;;;;5109788;28;20309;-53
2024/03/22 08:43:47;;;;;;;42.90;40.40;;;;;;;;;;5108914;28;20023;-53
2024/03/22 08:46:12;;;;;;;42.63;40.33;;;;;;;;;;5113740;27;20077;-52
2024/03/22 08:48:38;;;;;;;44.95;42.38;;;;;;;;;;5116387;27;20035;-53
2024/03/22 08:51:03;;;;;;;40.50;38.30;;;;;;;;;;5095813;27;20053;-51
2024/03/22 08:53:28;;;;;;;43.38;40.97;;;;;;;;;;5112074;27;20039;-53
2024/03/22 08:55:54;;;;;;;43.28;41.00;;;;;;;;;;5111032;27;20644;-54
2024/03/22 08:58:19;;;;;;;45.35;42.90;;;;;;;;;;5109740;27;20035;-53
2024/03/22 09:00:44;;;;;;;40.25;38.15;;;;;;;;;;5117106;27;20935;-54
2024/03/22 09:03:10;;;;;;;37.22;35.25;;;;;;;;;;5114640;27;20027;-52
2024/03/22 09:05:36;;;;;;;33.75;31.95;;;;;;;;;;5113497;27;20517;-54
2024/03/22 09:08:03;;;;;;;38.85;36.75;;;;;;;;;;5117445;27;20441;-53
2024/03/22 09:10:30;;;;;;;41.28;39.00;;;;;;;;;;5096063;27;20028;-53
2024/03/22 09:12:55;;;;;;;39.80;37.65;;;;;;;;;;5095330;27;20031;-53
2024/03/22 09:15:21;;;;;;;43.25;40.85;;;;;;;;;;5112236;27;20047;-54
2024/03/22 09:17:47;;;;;;;37.13;35.17;;;;;;;;;;5115177;27;20440;-53
2024/03/22 09:20:12;;;;;;;46.33;43.92;;;;;;;;;;5111573;27;20042;-53
2024/03/22 09:22:39;;;;;;;50.03;47.45;;;;;;;;;;5114621;27;20020;-52
2024/03/22 09:25:05;;;;;;;50.67;48.10;;;;;;;;;;5111812;27;20066;-55
2024/03/22 09:27:31;;;;;;;71.10;67.50;;;;;;;;;;5114790;27;20123;-55
2024/03/22 09:29:57;;;;;;;59.75;56.70;;;;;;;;;;5093355;27;20033;-53
2024/03/22 09:32:23;;;;;;;57.33;54.40;;;;;;;;;;5113449;27;20500;-53
2024/03/22 09:34:50;;;;;;;47.30;44.75;;;;;;;;;;5114997;27;20065;-53
2024/03/22 09:37:15;;;;;;;55.17;52.22;;;;;;;;;;5115538;27;20113;-54
2024/03/22 09:39:41;;;;;;;65.90;62.50;;;;;;;;;;5079801;27;20633;-53
2024/03/22 09:42:06;;;;;;;46.85;44.05;;;;;;;;;;5116661;27;20027;-55
2024/03/22 09:44:32;;;;;;;53.72;50.30;;;;;;;;;;5113429;27;20039;-53
2024/03/22 09:46:59;;;;;;;52.10;48.60;;;;;;;;;;5112426;27;20042;-51
2024/03/22 09:49:25;;;;;;;47.85;44.63;;;;;;;;;;5112526;27;20050;-54
2024/03/22 09:51:51;;;;;;;46.45;43.00;;;;;;;;;;5114363;27;20032;-53
2024/03/22 09:54:17;;;;;;;49.17;45.15;;;;;;;;;;5112095;27;20042;-54
2024/03/22 09:56:43;;;;;;;53.58;50.40;;;;;;;;;;5112607;27;20416;-54
2024/03/22 09:59:10;;;;;;;37.00;34.38;;;;;;;;;;5091642;27;20028;-51
2024/03/22 10:01:36;;;;;;;34.97;32.80;;;;;;;;;;5113807;27;20036;-55
2024/03/22 10:04:02;;;;;;;32.95;31.13;;;;;;;;;;5114453;27;20024;-52
2024/03/22 10:06:29;;;;;;;32.97;31.08;;;;;;;;;;5095479;27;20421;-54
2024/03/22 10:08:54;;;;;;;31.10;29.40;;;;;;;;;;5112572;27;20027;-54
2024/03/22 10:11:20;;;;;;;33.55;31.65;;;;;;;;;;5114461;27;20047;-55
2024/03/22 10:13:46;;;;;;;34.80;33.00;;;;;;;;;;5095881;27;20065;-55
2024/03/22 10:16:12;;;;;;;43.45;40.97;;;;;;;;;;5111483;27;20100;-54
2024/03/22 10:18:37;;;;;;;39.35;37.13;;;;;;;;;;5092980;27;20440;-55
2024/03/22 10:21:06;;;;;;;53.05;50.35;;;;;;;;;;5114922;27;20031;-53
2024/03/22 10:23:31;;;;;;;56.50;53.60;;;;;;;;;;5113991;27;20062;-55
2024/03/22 10:25:58;;;;;;;53.67;50.88;;;;;;;;;;5112801;27;20059;-52
2024/03/22 10:28:24;;;;;;;72.25;68.45;;;;;;;;;;5112862;27;20091;-54
2024/03/22 10:30:52;;;;;;;108.18;102.78;;;;;;;;;;5115296;27;20115;-56
2024/03/22 10:33:19;;;;;;;66.88;63.42;;;;;;;;;;5113479;27;20045;-57
2024/03/22 10:35:46;;;;;;;193.50;183.85;;;;;;;;;;5112758;27;20031;-55
2024/03/22 10:38:12;;;;;;;191.00;181.35;;;;;;;;;;5110901;27;20027;-56
2024/03/22 10:40:40;;;;;;;149.30;141.80;;;;;;;;;;5113097;27;21918;-56
2024/03/22 10:43:05;;;;;;;204.70;194.65;;;;;;;;;;5091873;27;20065;-54
2024/03/22 10:45:31;;;;;;;210.25;199.80;;;;;;;;;;5110031;27;20456;-56
2024/03/22 10:47:57;;;;;;;197.40;187.57;;;;;;;;;;5115323;27;20070;-56
2024/03/22 10:50:23;;;;;;;181.80;172.73;;;;;;;;;;5096261;27;20116;-56
2024/03/22 10:52:54;;;;;;;207.15;196.88;;;;;;;;;;5094357;27;20028;-55
2024/03/22 10:55:30;;;;;;;187.90;178.50;;;;;;;;;;5109994;27;20469;-56
2024/03/22 10:57:57;;;;;;;144.52;137.20;;;;;;;;;;5116052;27;20035;-56
2024/03/22 11:00:33;;;;;;;136.82;129.68;;;;;;;;;;5112181;27;20114;-56
2024/03/22 11:03:01;;;;;;;193.98;184.30;;;;;;;;;;5129970;27;20031;-55
2024/03/22 11:05:27;;;;;;;178.35;169.35;;;;;;;;;;5109294;27;20035;-56
2024/03/22 11:08:05;;;;;;;180.80;171.73;;;;;;;;;;5111307;27;20030;-56
2024/03/22 11:10:34;;;;;;;188.75;179.00;;;;;;;;;;5112889;27;20631;-57
2024/03/22 11:13:09;;;;;;;186.05;176.68;;;;;;;;;;5111972;27;20039;-56
2024/03/22 11:15:34;;;;;;;164.40;155.98;;;;;;;;;;5110843;27;20088;-57
2024/03/22 11:18:00;;;;;;;188.45;178.73;;;;;;;;;;5109340;27;20027;-55
2024/03/22 11:20:27;;;;;;;203.35;193.30;;;;;;;;;;5109971;27;20114;-55
2024/03/22 11:22:52;;;;;;;201.88;191.88;;;;;;;;;;5110668;27;20048;-56
2024/03/22 11:25:19;;;;;;;167.50;159.15;;;;;;;;;;5110823;27;20405;-56
2024/03/22 11:27:45;;;;;;;190.35;180.85;;;;;;;;;;5117276;27;20135;-57
2024/03/22 11:30:10;;;;;;;156.60;148.73;;;;;;;;;;5109617;27;20118;-56
2024/03/22 11:32:42;;;;;;;59.90;56.85;;;;;;;;;;5112801;27;20464;-56
2024/03/22 11:35:09;;;;;;;55.97;52.97;;;;;;;;;;5108887;27;20040;-56
2024/03/22 11:37:35;;;;;;;41.05;38.83;;;;;;;;;;5109354;27;20043;-60
2024/03/22 11:40:04;;;;;;;39.83;37.72;;;;;;;;;;5110914;27;20035;-57
2024/03/22 11:42:29;;;;;;;37.10;35.10;;;;;;;;;;5083853;27;20191;-55
2024/03/22 11:44:55;;;;;;;39.97;37.88;;;;;;;;;;5112578;27;20066;-56
2024/03/22 11:47:20;;;;;;;39.75;37.65;;;;;;;;;;5110659;27;20042;-57
2024/03/22 11:49:46;;;;;;;38.17;36.15;;;;;;;;;;5112336;27;20636;-57
2024/03/22 11:52:11;;;;;;;36.13;34.13;;;;;;;;;;5111676;27;20031;-57
2024/03/22 11:54:36;;;;;;;37.30;35.30;;;;;;;;;;5114630;27;20345;-57
2024/03/22 11:57:02;;;;;;;35.53;33.63;;;;;;;;;;5113119;27;20049;-56
2024/03/22 11:59:29;;;;;;;40.72;38.63;;;;;;;;;;5093927;28;20032;-57
2024/03/22 12:01:55;;;;;;;31.27;29.48;;;;;;;;;;5109199;28;20087;-55
2024/03/22 12:04:20;;;;;;;34.95;33.08;;;;;;;;;;5110222;27;20461;-56
2024/03/22 12:06:45;;;;;;;30.17;28.38;;;;;;;;;;5110949;27;20074;-57
2024/03/22 12:09:14;;;;;;;33.45;31.52;;;;;;;;;;5107997;28;20430;-57
2024/03/22 12:11:40;;;;;;;30.65;28.92;;;;;;;;;;5090255;28;20122;-58
2024/03/22 12:14:05;;;;;;;37.20;35.10;;;;;;;;;;5109977;27;20399;-55
2024/03/22 12:16:31;;;;;;;37.72;35.65;;;;;;;;;;5108519;28;20046;-57
2024/03/22 12:18:57;;;;;;;34.47;32.70;;;;;;;;;;5110751;27;20027;-57
2024/03/22 12:21:22;;;;;;;33.67;31.88;;;;;;;;;;5112839;28;20587;-56
2024/03/22 12:23:48;;;;;;;35.90;33.90;;;;;;;;;;5090761;28;20593;-54
2024/03/22 12:26:13;;;;;;;33.63;31.73;;;;;;;;;;5108252;28;20448;-57
2024/03/22 12:28:39;;;;;;;35.60;33.70;;;;;;;;;;5110713;28;20057;-56
2024/03/22 12:31:05;;;;;;;44.63;42.33;;;;;;;;;;5106887;28;20149;-63
2024/03/22 12:33:30;;;;;;;41.75;39.55;;;;;;;;;;5109440;28;20727;-64
2024/03/22 12:35:55;;;;;;;43.00;40.75;;;;;;;;;;5107721;28;20046;-63
2024/03/22 12:38:21;;;;;;;42.20;39.90;;;;;;;;;;5110373;28;20084;-63
2024/03/22 12:40:46;;;;;;;39.80;37.13;;;;;;;;;;5090262;28;20127;-61
2024/03/22 12:43:12;;;;;;;35.15;33.15;;;;;;;;;;5109238;28;20027;-56
2024/03/22 12:45:37;;;;;;;39.22;37.10;;;;;;;;;;5110380;28;21243;-56
2024/03/22 12:48:04;;;;;;;35.53;33.63;;;;;;;;;;5109690;28;20624;-57
2024/03/22 12:50:30;;;;;;;39.58;37.53;;;;;;;;;;5110529;28;20040;-57
2024/03/22 12:52:55;;;;;;;45.90;43.50;;;;;;;;;;5108661;28;20043;-56
2024/03/22 12:55:21;;;;;;;38.80;36.75;;;;;;;;;;5111417;28;20035;-63
2024/03/22 12:57:46;;;;;;;41.45;39.15;;;;;;;;;;5111088;28;20052;-63
2024/03/22 13:00:18;;;;;;;46.40;43.97;;;;;;;;;;5111955;28;20440;-63
2024/03/22 13:02:44;;;;;;;41.55;39.15;;;;;;;;;;5109070;28;20129;-63
2024/03/22 13:05:10;;;;;;;43.67;40.88;;;;;;;;;;5094082;28;20658;-58
2024/03/22 13:07:36;;;;;;;48.70;46.20;;;;;;;;;;5109308;28;20031;-57
2024/03/22 13:10:01;;;;;;;43.05;40.35;;;;;;;;;;5092422;28;20043;-63
2024/03/22 13:12:28;;;;;;;42.30;40.08;;;;;;;;;;5091263;28;20027;-58
2024/03/22 13:14:53;;;;;;;42.67;40.47;;;;;;;;;;5110282;28;20122;-57
2024/03/22 13:17:20;;;;;;;42.47;40.17;;;;;;;;;;5112856;28;20566;-57
2024/03/22 13:19:45;;;;;;;43.22;40.92;;;;;;;;;;5110369;28;20019;-59
2024/03/22 13:22:12;;;;;;;47.13;44.50;;;;;;;;;;5111065;28;20146;-57
2024/03/22 13:24:37;;;;;;;43.15;40.78;;;;;;;;;;5109939;28;20102;-58
2024/03/22 13:27:03;;;;;;;37.95;35.88;;;;;;;;;;5091602;28;20596;-63
2024/03/22 13:29:29;;;;;;;35.25;33.35;;;;;;;;;;5090087;28;20050;-63
2024/03/22 13:31:54;;;;;;;34.58;32.53;;;;;;;;;;5093502;27;20488;-63
2024/03/22 13:34:19;;;;;;;35.40;33.30;;;;;;;;;;5115435;27;20122;-63
2024/03/22 13:36:45;;;;;;;34.17;32.33;;;;;;;;;;5113667;27;20042;-63
2024/03/22 13:39:10;;;;;;;33.85;31.95;;;;;;;;;;5116752;27;20038;-63
2024/03/22 13:41:36;;;;;;;34.85;32.13;;;;;;;;;;5116225;27;20036;-63
2024/03/22 13:44:06;;;;;;;30.40;28.70;;;;;;;;;;5112050;27;20027;-57
2024/03/22 13:46:31;;;;;;;36.20;33.67;;;;;;;;;;5114317;27;20071;-58
2024/03/22 13:48:56;;;;;;;28.52;26.98;;;;;;;;;;5112200;27;20464;-63
2024/03/22 13:51:22;;;;;;;31.58;29.88;;;;;;;;;;5114713;27;20031;-57
2024/03/22 13:53:47;;;;;;;32.70;30.90;;;;;;;;;;5112150;27;20031;-58
2024/03/22 13:56:12;;;;;;;29.05;27.45;;;;;;;;;;5113036;27;20102;-57
2024/03/22 13:58:38;;;;;;;30.55;28.65;;;;;;;;;;5112326;27;20027;-57
2024/03/22 14:01:03;;;;;;;30.30;28.42;;;;;;;;;;5109569;27;20027;-63
2024/03/22 14:03:28;;;;;;;30.48;28.63;;;;;;;;;;5113831;27;20051;-63
2024/03/22 14:05:54;;;;;;;29.10;27.38;;;;;;;;;;5114072;27;20558;-63
2024/03/22 14:08:19;;;;;;;30.10;27.95;;;;;;;;;;5113630;27;20050;-63